sensor_id;sensor_type;location;lat;lon;timestamp;temperature;humidity
21844;DHT22;11084;52.482;9.108;2022-11-12T00:02:32;3.30;99.90
21844;DHT22;11084;52.482;9.108;2022-11-12T00:05:16;3.20;99.90
21844;DHT22;11084;52.482;9.108;2022-11-12T00:08:01;3.20;99.90
21844;DHT22;11084;52.482;9.108;2022-11-12T00:10:46;3.20;99.90
21844;DHT22;11084;52.482;9.108;2022-11-12T00:13:32;3.10;99.90
21844;DHT22;11084;52.482;9.108;2022-11-12T00:16:16;0.90;99.90
21844;DHT22;11084;52.482;9.108;2022-11-12T00:19:01;3.00;99.90
21844;DHT22;11084;52.482;9.108;2022-11-12T00:21:46;3.50;99.90
21844;DHT22;11084;52.482;9.108;2022-11-12T00:24:31;3.00;99.90
21844;DHT22;11084;52.482;9.108;2022-11-12T00:30:02;3.10;99.90
21844;DHT22;11084;52.482;9.108;2022-11-12T00:35:33;2.40;99.90
21844;DHT22;11084;52.482;9.108;2022-11-12T00:38:19;2.90;99.90
21844;DHT22;11084;52.482;9.108;2022-11-12T00:41:04;2.80;99.90
21844;DHT22;11084;52.482;9.108;2022-11-12T00:43:50;2.70;99.90
21844;DHT22;11084;52.482;9.108;2022-11-12T00:46:34;4.60;99.90
21844;DHT22;11084;52.482;9.108;2022-11-12T00:49:20;2.50;99.90
21844;DHT22;11084;52.482;9.108;2022-11-12T00:52:04;2.60;99.90
21844;DHT22;11084;52.482;9.108;2022-11-12T00:54:49;2.50;99.90
21844;DHT22;11084;52.482;9.108;2022-11-12T00:57:35;2.30;99.90
21844;DHT22;11084;52.482;9.108;2022-11-12T01:00:19;2.50;99.90
21844;DHT22;11084;52.482;9.108;2022-11-12T01:03:04;2.60;99.90
21844;DHT22;11084;52.482;9.108;2022-11-12T01:08:35;2.40;99.90
21844;DHT22;11084;52.482;9.108;2022-11-12T01:11:23;2.30;99.90
21844;DHT22;11084;52.482;9.108;2022-11-12T01:16:54;2.40;99.90
21844;DHT22;11084;52.482;9.108;2022-11-12T01:19:39;2.30;99.90
21844;DHT22;11084;52.482;9.108;2022-11-12T01:22:24;2.30;99.90
21844;DHT22;11084;52.482;9.108;2022-11-12T01:25:08;2.40;99.90
21844;DHT22;11084;52.482;9.108;2022-11-12T01:27:53;2.30;99.90
21844;DHT22;11084;52.482;9.108;2022-11-12T01:30:40;2.30;99.90
21844;DHT22;11084;52.482;9.108;2022-11-12T01:33:25;2.20;99.90
21844;DHT22;11084;52.482;9.108;2022-11-12T01:38:55;2.20;99.90
21844;DHT22;11084;52.482;9.108;2022-11-12T01:41:41;2.20;99.90
21844;DHT22;11084;52.482;9.108;2022-11-12T01:44:30;2.20;99.90
21844;DHT22;11084;52.482;9.108;2022-11-12T01:47:31;2.10;99.90
21844;DHT22;11084;52.482;9.108;2022-11-12T01:50:27;2.20;99.90
21844;DHT22;11084;52.482;9.108;2022-11-12T01:53:14;2.20;99.90
21844;DHT22;11084;52.482;9.108;2022-11-12T01:56:01;2.20;99.90
21844;DHT22;11084;52.482;9.108;2022-11-12T01:58:48;2.30;99.90
21844;DHT22;11084;52.482;9.108;2022-11-12T02:01:37;2.20;99.90
21844;DHT22;11084;52.482;9.108;2022-11-12T02:04:24;2.20;99.90
21844;DHT22;11084;52.482;9.108;2022-11-12T02:07:10;2.20;99.90
21844;DHT22;11084;52.482;9.108;2022-11-12T02:09:56;2.30;99.90
21844;DHT22;11084;52.482;9.108;2022-11-12T02:12:43;2.30;99.90
21844;DHT22;11084;52.482;9.108;2022-11-12T02:15:47;2.20;99.90
21844;DHT22;11084;52.482;9.108;2022-11-12T02:18:32;2.30;99.90
21844;DHT22;11084;52.482;9.108;2022-11-12T02:21:21;2.30;99.90
21844;DHT22;11084;52.482;9.108;2022-11-12T02:26:57;2.30;99.90
21844;DHT22;11084;52.482;9.108;2022-11-12T02:29:42;2.30;99.90
21844;DHT22;11084;52.482;9.108;2022-11-12T02:32:30;2.30;99.90
21844;DHT22;11084;52.482;9.108;2022-11-12T02:35:15;2.30;99.90
21844;DHT22;11084;52.482;9.108;2022-11-12T02:38:00;2.20;99.90
21844;DHT22;11084;52.482;9.108;2022-11-12T02:40:45;2.20;99.90
21844;DHT22;11084;52.482;9.108;2022-11-12T02:46:15;2.20;99.90
21844;DHT22;11084;52.482;9.108;2022-11-12T02:49:00;2.20;99.90
21844;DHT22;11084;52.482;9.108;2022-11-12T02:51:44;2.10;99.90
21844;DHT22;11084;52.482;9.108;2022-11-12T02:54:29;2.10;99.90
21844;DHT22;11084;52.482;9.108;2022-11-12T02:59:59;2.10;99.90
21844;DHT22;11084;52.482;9.108;2022-11-12T03:02:44;2.10;99.90
21844;DHT22;11084;52.482;9.108;2022-11-12T03:05:43;2.10;99.90
21844;DHT22;11084;52.482;9.108;2022-11-12T03:08:28;2.10;99.90
21844;DHT22;11084;52.482;9.108;2022-11-12T03:11:16;2.10;99.90
21844;DHT22;11084;52.482;9.108;2022-11-12T03:14:01;2.00;99.90
21844;DHT22;11084;52.482;9.108;2022-11-12T03:16:46;1.90;99.90
21844;DHT22;11084;52.482;9.108;2022-11-12T03:19:30;2.00;99.90
21844;DHT22;11084;52.482;9.108;2022-11-12T03:22:15;1.90;99.90
21844;DHT22;11084;52.482;9.108;2022-11-12T03:25:00;1.90;99.90
21844;DHT22;11084;52.482;9.108;2022-11-12T03:27:45;1.90;99.90
21844;DHT22;11084;52.482;9.108;2022-11-12T03:30:34;1.80;99.90
21844;DHT22;11084;52.482;9.108;2022-11-12T03:33:19;1.80;99.90
21844;DHT22;11084;52.482;9.108;2022-11-12T03:36:04;2.00;99.90
21844;DHT22;11084;52.482;9.108;2022-11-12T03:38:50;1.80;99.90
21844;DHT22;11084;52.482;9.108;2022-11-12T03:41:36;1.80;99.90
21844;DHT22;11084;52.482;9.108;2022-11-12T03:44:21;1.80;99.90
21844;DHT22;11084;52.482;9.108;2022-11-12T03:47:05;1.80;99.90
21844;DHT22;11084;52.482;9.108;2022-11-12T03:49:50;1.90;99.90
21844;DHT22;11084;52.482;9.108;2022-11-12T03:52:35;1.80;99.90
21844;DHT22;11084;52.482;9.108;2022-11-12T03:55:22;1.80;99.90
21844;DHT22;11084;52.482;9.108;2022-11-12T04:00:53;1.70;99.90
21844;DHT22;11084;52.482;9.108;2022-11-12T04:03:37;1.80;99.90
21844;DHT22;11084;52.482;9.108;2022-11-12T04:06:22;1.60;99.90
21844;DHT22;11084;52.482;9.108;2022-11-12T04:09:26;1.60;99.90
21844;DHT22;11084;52.482;9.108;2022-11-12T04:12:12;1.50;99.90
21844;DHT22;11084;52.482;9.108;2022-11-12T04:15:15;1.50;99.90
21844;DHT22;11084;52.482;9.108;2022-11-12T04:18:00;1.40;99.90
21844;DHT22;11084;52.482;9.108;2022-11-12T04:24:18;1.40;99.90
21844;DHT22;11084;52.482;9.108;2022-11-12T04:27:28;1.40;99.90
21844;DHT22;11084;52.482;9.108;2022-11-12T04:35:49;1.30;99.90
21844;DHT22;11084;52.482;9.108;2022-11-12T04:38:34;1.30;99.90
21844;DHT22;11084;52.482;9.108;2022-11-12T04:41:18;1.20;99.90
21844;DHT22;11084;52.482;9.108;2022-11-12T04:44:22;1.20;99.90
21844;DHT22;11084;52.482;9.108;2022-11-12T04:47:28;1.20;99.90
21844;DHT22;11084;52.482;9.108;2022-11-12T04:50:24;1.20;99.90
21844;DHT22;11084;52.482;9.108;2022-11-12T04:53:08;1.10;99.90
21844;DHT22;11084;52.482;9.108;2022-11-12T04:55:55;1.40;99.90
21844;DHT22;11084;52.482;9.108;2022-11-12T04:58:41;1.00;99.90
21844;DHT22;11084;52.482;9.108;2022-11-12T05:01:25;1.00;99.90
21844;DHT22;11084;52.482;9.108;2022-11-12T05:04:10;1.00;99.90
21844;DHT22;11084;52.482;9.108;2022-11-12T05:06:57;1.00;99.90
21844;DHT22;11084;52.482;9.108;2022-11-12T05:09:42;0.90;99.90
21844;DHT22;11084;52.482;9.108;2022-11-12T05:12:27;0.80;99.90
21844;DHT22;11084;52.482;9.108;2022-11-12T05:15:12;0.90;99.90
21844;DHT22;11084;52.482;9.108;2022-11-12T05:17:56;0.80;99.90
21844;DHT22;11084;52.482;9.108;2022-11-12T05:20:41;0.80;99.90
21844;DHT22;11084;52.482;9.108;2022-11-12T05:23:26;0.80;99.90
21844;DHT22;11084;52.482;9.108;2022-11-12T05:26:10;0.70;99.90
21844;DHT22;11084;52.482;9.108;2022-11-12T05:28:55;0.80;99.90
21844;DHT22;11084;52.482;9.108;2022-11-12T05:31:40;0.70;99.90
21844;DHT22;11084;52.482;9.108;2022-11-12T05:34:24;0.70;99.90
21844;DHT22;11084;52.482;9.108;2022-11-12T05:37:11;0.70;99.90
21844;DHT22;11084;52.482;9.108;2022-11-12T05:39:58;0.60;99.90
21844;DHT22;11084;52.482;9.108;2022-11-12T05:42:43;0.50;99.90
21844;DHT22;11084;52.482;9.108;2022-11-12T05:45:28;0.60;99.90
21844;DHT22;11084;52.482;9.108;2022-11-12T05:48:12;0.70;99.90
21844;DHT22;11084;52.482;9.108;2022-11-12T05:50:57;0.70;99.90
21844;DHT22;11084;52.482;9.108;2022-11-12T05:53:42;0.60;99.90
21844;DHT22;11084;52.482;9.108;2022-11-12T05:56:27;0.60;99.90
21844;DHT22;11084;52.482;9.108;2022-11-12T05:59:12;0.60;99.90
21844;DHT22;11084;52.482;9.108;2022-11-12T06:01:57;0.70;99.90
21844;DHT22;11084;52.482;9.108;2022-11-12T06:04:42;0.60;99.90
21844;DHT22;11084;52.482;9.108;2022-11-12T06:10:13;0.70;99.90
21844;DHT22;11084;52.482;9.108;2022-11-12T06:12:58;0.60;99.90
21844;DHT22;11084;52.482;9.108;2022-11-12T06:15:43;0.60;99.90
21844;DHT22;11084;52.482;9.108;2022-11-12T06:18:27;0.60;99.90
21844;DHT22;11084;52.482;9.108;2022-11-12T06:21:12;0.60;99.90
21844;DHT22;11084;52.482;9.108;2022-11-12T06:24:03;0.60;99.90
21844;DHT22;11084;52.482;9.108;2022-11-12T06:29:33;0.50;99.90
21844;DHT22;11084;52.482;9.108;2022-11-12T06:32:18;0.50;99.90
21844;DHT22;11084;52.482;9.108;2022-11-12T06:35:02;0.50;99.90
21844;DHT22;11084;52.482;9.108;2022-11-12T06:37:48;0.50;99.90
21844;DHT22;11084;52.482;9.108;2022-11-12T06:40:33;0.50;99.90
21844;DHT22;11084;52.482;9.108;2022-11-12T06:43:18;0.40;99.90
21844;DHT22;11084;52.482;9.108;2022-11-12T06:46:08;0.40;99.90
21844;DHT22;11084;52.482;9.108;2022-11-12T06:48:57;0.50;99.90
21844;DHT22;11084;52.482;9.108;2022-11-12T06:51:41;0.40;99.90
21844;DHT22;11084;52.482;9.108;2022-11-12T06:54:26;0.90;99.90
21844;DHT22;11084;52.482;9.108;2022-11-12T06:57:11;1.00;99.90
21844;DHT22;11084;52.482;9.108;2022-11-12T06:59:55;1.50;99.90
21844;DHT22;11084;52.482;9.108;2022-11-12T07:02:40;1.70;99.90
21844;DHT22;11084;52.482;9.108;2022-11-12T07:08:10;1.60;99.90
21844;DHT22;11084;52.482;9.108;2022-11-12T07:10:55;1.60;99.90
21844;DHT22;11084;52.482;9.108;2022-11-12T07:13:41;1.50;99.90
21844;DHT22;11084;52.482;9.108;2022-11-12T07:16:27;1.40;99.90
21844;DHT22;11084;52.482;9.108;2022-11-12T07:19:12;1.40;99.90
21844;DHT22;11084;52.482;9.108;2022-11-12T07:21:56;1.40;99.90
21844;DHT22;11084;52.482;9.108;2022-11-12T07:24:41;1.40;99.90
21844;DHT22;11084;52.482;9.108;2022-11-12T07:27:28;1.30;99.90
21844;DHT22;11084;52.482;9.108;2022-11-12T07:30:14;1.30;99.90
21844;DHT22;11084;52.482;9.108;2022-11-12T07:32:59;1.30;99.90
21844;DHT22;11084;52.482;9.108;2022-11-12T07:35:44;1.30;99.90
21844;DHT22;11084;52.482;9.108;2022-11-12T07:38:29;1.30;99.90
21844;DHT22;11084;52.482;9.108;2022-11-12T07:41:20;1.30;99.90
21844;DHT22;11084;52.482;9.108;2022-11-12T07:44:07;1.40;99.90
21844;DHT22;11084;52.482;9.108;2022-11-12T07:46:51;1.40;99.90
21844;DHT22;11084;52.482;9.108;2022-11-12T07:52:21;1.50;99.90
21844;DHT22;11084;52.482;9.108;2022-11-12T07:55:06;1.50;99.90
21844;DHT22;11084;52.482;9.108;2022-11-12T07:57:50;1.60;99.90
21844;DHT22;11084;52.482;9.108;2022-11-12T08:00:36;1.70;99.90
21844;DHT22;11084;52.482;9.108;2022-11-12T08:03:21;1.70;99.90
21844;DHT22;11084;52.482;9.108;2022-11-12T08:06:06;1.80;99.90
21844;DHT22;11084;52.482;9.108;2022-11-12T08:08:52;1.80;99.90
21844;DHT22;11084;52.482;9.108;2022-11-12T08:11:37;1.90;99.90
21844;DHT22;11084;52.482;9.108;2022-11-12T08:14:22;1.90;99.90
21844;DHT22;11084;52.482;9.108;2022-11-12T08:17:08;1.90;99.90
21844;DHT22;11084;52.482;9.108;2022-11-12T08:19:52;1.90;99.90
21844;DHT22;11084;52.482;9.108;2022-11-12T08:22:40;1.90;99.90
21844;DHT22;11084;52.482;9.108;2022-11-12T08:25:24;1.90;99.90
21844;DHT22;11084;52.482;9.108;2022-11-12T08:30:54;2.10;99.90
21844;DHT22;11084;52.482;9.108;2022-11-12T08:33:40;2.10;99.90
21844;DHT22;11084;52.482;9.108;2022-11-12T08:36:26;2.10;99.90
21844;DHT22;11084;52.482;9.108;2022-11-12T08:39:11;2.20;99.90
21844;DHT22;11084;52.482;9.108;2022-11-12T08:44:41;2.30;99.90
21844;DHT22;11084;52.482;9.108;2022-11-12T08:47:26;2.40;99.90
21844;DHT22;11084;52.482;9.108;2022-11-12T08:50:12;2.40;99.90
21844;DHT22;11084;52.482;9.108;2022-11-12T08:53:04;2.50;99.90
21844;DHT22;11084;52.482;9.108;2022-11-12T08:55:56;2.50;99.90
21844;DHT22;11084;52.482;9.108;2022-11-12T08:58:43;2.60;99.90
21844;DHT22;11084;52.482;9.108;2022-11-12T09:01:28;2.60;99.90
21844;DHT22;11084;52.482;9.108;2022-11-12T09:04:15;2.70;99.90
21844;DHT22;11084;52.482;9.108;2022-11-12T09:06:59;2.70;99.90
21844;DHT22;11084;52.482;9.108;2022-11-12T09:12:29;2.90;99.90
21844;DHT22;11084;52.482;9.108;2022-11-12T09:15:13;2.90;99.90
21844;DHT22;11084;52.482;9.108;2022-11-12T09:18:00;3.10;99.90
21844;DHT22;11084;52.482;9.108;2022-11-12T09:20:45;3.10;99.90
21844;DHT22;11084;52.482;9.108;2022-11-12T09:23:30;3.20;99.90
21844;DHT22;11084;52.482;9.108;2022-11-12T09:26:14;3.30;99.90
21844;DHT22;11084;52.482;9.108;2022-11-12T09:28:59;3.40;99.90
21844;DHT22;11084;52.482;9.108;2022-11-12T09:31:44;3.50;99.90
21844;DHT22;11084;52.482;9.108;2022-11-12T09:34:30;3.50;99.90
21844;DHT22;11084;52.482;9.108;2022-11-12T09:37:14;3.60;99.90
21844;DHT22;11084;52.482;9.108;2022-11-12T09:39:59;3.70;99.90
21844;DHT22;11084;52.482;9.108;2022-11-12T09:42:46;3.80;99.90
21844;DHT22;11084;52.482;9.108;2022-11-12T09:45:36;3.90;99.90
21844;DHT22;11084;52.482;9.108;2022-11-12T09:48:31;4.00;99.90
21844;DHT22;11084;52.482;9.108;2022-11-12T09:51:24;2.70;99.90
21844;DHT22;11084;52.482;9.108;2022-11-12T09:57:11;4.30;99.90
21844;DHT22;11084;52.482;9.108;2022-11-12T09:59:56;4.30;99.90
21844;DHT22;11084;52.482;9.108;2022-11-12T10:03:00;4.60;99.90
21844;DHT22;11084;52.482;9.108;2022-11-12T10:05:55;4.60;99.90
21844;DHT22;11084;52.482;9.108;2022-11-12T10:09:00;4.70;99.90
21844;DHT22;11084;52.482;9.108;2022-11-12T10:11:57;4.90;99.90
21844;DHT22;11084;52.482;9.108;2022-11-12T10:25:18;5.40;99.90
21844;DHT22;11084;52.482;9.108;2022-11-12T10:31:20;5.60;99.90
21844;DHT22;11084;52.482;9.108;2022-11-12T10:34:12;5.60;99.90
21844;DHT22;11084;52.482;9.108;2022-11-12T10:37:04;5.80;99.90
21844;DHT22;11084;52.482;9.108;2022-11-12T10:46:22;6.10;99.90
21844;DHT22;11084;52.482;9.108;2022-11-12T10:51:59;6.30;99.90
21844;DHT22;11084;52.482;9.108;2022-11-12T10:54:44;6.50;99.90
21844;DHT22;11084;52.482;9.108;2022-11-12T10:57:29;6.60;99.90
21844;DHT22;11084;52.482;9.108;2022-11-12T11:03:15;6.90;99.90
21844;DHT22;11084;52.482;9.108;2022-11-12T11:06:20;7.00;99.90
21844;DHT22;11084;52.482;9.108;2022-11-12T11:11:56;7.10;99.90
21844;DHT22;11084;52.482;9.108;2022-11-12T11:14:41;7.40;99.90
21844;DHT22;11084;52.482;9.108;2022-11-12T11:17:27;7.40;99.90
21844;DHT22;11084;52.482;9.108;2022-11-12T11:23:19;7.70;99.90
21844;DHT22;11084;52.482;9.108;2022-11-12T11:26:23;7.90;99.90
21844;DHT22;11084;52.482;9.108;2022-11-12T11:29:33;8.10;99.90
21844;DHT22;11084;52.482;9.108;2022-11-12T11:39:02;8.40;99.90
21844;DHT22;11084;52.482;9.108;2022-11-12T11:42:21;8.70;99.90
21844;DHT22;11084;52.482;9.108;2022-11-12T11:45:49;8.80;99.90
21844;DHT22;11084;52.482;9.108;2022-11-12T12:04:49;9.20;99.90
21844;DHT22;11084;52.482;9.108;2022-11-12T12:11:05;10.80;99.90
21844;DHT22;11084;52.482;9.108;2022-11-12T12:13:58;9.40;99.90
21844;DHT22;11084;52.482;9.108;2022-11-12T12:20:10;9.50;99.90
21844;DHT22;11084;52.482;9.108;2022-11-12T12:23:13;9.60;99.90
21844;DHT22;11084;52.482;9.108;2022-11-12T12:26:43;9.60;99.90
21844;DHT22;11084;52.482;9.108;2022-11-12T12:29:37;9.60;99.90
21844;DHT22;11084;52.482;9.108;2022-11-12T12:32:35;9.60;99.90
21844;DHT22;11084;52.482;9.108;2022-11-12T12:35:35;9.70;99.90
21844;DHT22;11084;52.482;9.108;2022-11-12T12:38:45;9.70;99.90
21844;DHT22;11084;52.482;9.108;2022-11-12T12:42:03;9.70;99.90
21844;DHT22;11084;52.482;9.108;2022-11-12T12:44:56;9.80;99.90
21844;DHT22;11084;52.482;9.108;2022-11-12T12:47:51;9.80;99.90
21844;DHT22;11084;52.482;9.108;2022-11-12T12:50:38;9.80;99.90
21844;DHT22;11084;52.482;9.108;2022-11-12T12:58:57;9.90;99.90
21844;DHT22;11084;52.482;9.108;2022-11-12T13:01:55;9.90;99.90
21844;DHT22;11084;52.482;9.108;2022-11-12T13:04:54;10.00;99.90
21844;DHT22;11084;52.482;9.108;2022-11-12T13:07:42;10.00;99.90
21844;DHT22;11084;52.482;9.108;2022-11-12T13:13:28;10.10;99.90
21844;DHT22;11084;52.482;9.108;2022-11-12T13:19:44;10.10;99.90
21844;DHT22;11084;52.482;9.108;2022-11-12T13:25:28;10.20;99.90
21844;DHT22;11084;52.482;9.108;2022-11-12T13:28:14;10.10;99.90
21844;DHT22;11084;52.482;9.108;2022-11-12T13:31:01;10.20;99.90
21844;DHT22;11084;52.482;9.108;2022-11-12T13:33:46;10.20;99.90
21844;DHT22;11084;52.482;9.108;2022-11-12T13:36:31;10.20;99.90
21844;DHT22;11084;52.482;9.108;2022-11-12T13:39:18;10.10;99.90
21844;DHT22;11084;52.482;9.108;2022-11-12T13:42:15;10.20;99.90
21844;DHT22;11084;52.482;9.108;2022-11-12T13:45:24;10.20;99.90
21844;DHT22;11084;52.482;9.108;2022-11-12T13:48:23;10.10;99.90
21844;DHT22;11084;52.482;9.108;2022-11-12T13:54:36;10.10;99.90
21844;DHT22;11084;52.482;9.108;2022-11-12T14:03:05;10.00;99.90
21844;DHT22;11084;52.482;9.108;2022-11-12T14:05:50;10.00;99.90
21844;DHT22;11084;52.482;9.108;2022-11-12T14:08:40;9.90;99.90
21844;DHT22;11084;52.482;9.108;2022-11-12T14:20:35;9.80;99.90
21844;DHT22;11084;52.482;9.108;2022-11-12T14:23:22;9.70;99.90
21844;DHT22;11084;52.482;9.108;2022-11-12T14:26:10;9.70;99.90
21844;DHT22;11084;52.482;9.108;2022-11-12T14:28:56;9.70;99.90
21844;DHT22;11084;52.482;9.108;2022-11-12T14:34:31;9.60;99.90
21844;DHT22;11084;52.482;9.108;2022-11-12T14:37:37;9.40;99.90
21844;DHT22;11084;52.482;9.108;2022-11-12T14:40:23;9.40;99.90
21844;DHT22;11084;52.482;9.108;2022-11-12T14:46:38;9.20;99.90
21844;DHT22;11084;52.482;9.108;2022-11-12T14:49:45;9.20;99.90
21844;DHT22;11084;52.482;9.108;2022-11-12T14:52:36;9.10;99.90
21844;DHT22;11084;52.482;9.108;2022-11-12T14:55:31;9.00;99.90
21844;DHT22;11084;52.482;9.108;2022-11-12T14:58:18;8.90;99.90
21844;DHT22;11084;52.482;9.108;2022-11-12T15:01:26;8.90;99.90
21844;DHT22;11084;52.482;9.108;2022-11-12T15:04:20;8.80;99.90
21844;DHT22;11084;52.482;9.108;2022-11-12T15:07:28;8.70;99.90
21844;DHT22;11084;52.482;9.108;2022-11-12T15:10:42;8.60;99.90
21844;DHT22;11084;52.482;9.108;2022-11-12T15:13:36;8.50;99.90
21844;DHT22;11084;52.482;9.108;2022-11-12T15:16:36;8.40;99.90
21844;DHT22;11084;52.482;9.108;2022-11-12T15:19:26;8.40;99.90
21844;DHT22;11084;52.482;9.108;2022-11-12T15:22:20;8.30;99.90
21844;DHT22;11084;52.482;9.108;2022-11-12T15:25:10;8.20;99.90
21844;DHT22;11084;52.482;9.108;2022-11-12T15:28:18;8.10;99.90
21844;DHT22;11084;52.482;9.108;2022-11-12T15:31:16;8.20;99.90
21844;DHT22;11084;52.482;9.108;2022-11-12T15:37:26;7.90;99.90
21844;DHT22;11084;52.482;9.108;2022-11-12T15:40:17;7.80;99.90
21844;DHT22;11084;52.482;9.108;2022-11-12T15:43:12;7.60;99.90
21844;DHT22;11084;52.482;9.108;2022-11-12T15:46:18;7.60;99.90
21844;DHT22;11084;52.482;9.108;2022-11-12T15:49:12;7.60;99.90
21844;DHT22;11084;52.482;9.108;2022-11-12T15:51:57;7.40;99.90
21844;DHT22;11084;52.482;9.108;2022-11-12T15:54:41;7.40;99.90
21844;DHT22;11084;52.482;9.108;2022-11-12T15:57:29;7.10;99.90
21844;DHT22;11084;52.482;9.108;2022-11-12T16:00:23;7.20;99.90
21844;DHT22;11084;52.482;9.108;2022-11-12T16:03:17;7.00;99.90
21844;DHT22;11084;52.482;9.108;2022-11-12T16:06:03;6.90;99.90
21844;DHT22;11084;52.482;9.108;2022-11-12T16:08:48;6.90;99.90
21844;DHT22;11084;52.482;9.108;2022-11-12T16:14:20;6.60;99.90
21844;DHT22;11084;52.482;9.108;2022-11-12T16:17:09;6.60;99.90
21844;DHT22;11084;52.482;9.108;2022-11-12T16:22:40;6.50;99.90
21844;DHT22;11084;52.482;9.108;2022-11-12T16:25:31;6.30;99.90
21844;DHT22;11084;52.482;9.108;2022-11-12T16:28:18;6.30;99.90
21844;DHT22;11084;52.482;9.108;2022-11-12T16:31:02;6.20;99.90
21844;DHT22;11084;52.482;9.108;2022-11-12T16:39:17;6.10;99.90
21844;DHT22;11084;52.482;9.108;2022-11-12T16:42:02;5.90;99.90
21844;DHT22;11084;52.482;9.108;2022-11-12T16:44:46;5.90;99.90
21844;DHT22;11084;52.482;9.108;2022-11-12T16:47:31;5.70;99.90
21844;DHT22;11084;52.482;9.108;2022-11-12T16:50:18;5.60;99.90
21844;DHT22;11084;52.482;9.108;2022-11-12T16:53:04;5.60;99.90
21844;DHT22;11084;52.482;9.108;2022-11-12T16:55:49;5.50;99.90
21844;DHT22;11084;52.482;9.108;2022-11-12T16:58:34;5.50;99.90
21844;DHT22;11084;52.482;9.108;2022-11-12T17:01:30;5.40;99.90
21844;DHT22;11084;52.482;9.108;2022-11-12T17:04:18;5.30;99.90
21844;DHT22;11084;52.482;9.108;2022-11-12T17:07:04;5.30;99.90
21844;DHT22;11084;52.482;9.108;2022-11-12T17:09:50;5.30;99.90
21844;DHT22;11084;52.482;9.108;2022-11-12T17:12:36;5.20;99.90
21844;DHT22;11084;52.482;9.108;2022-11-12T17:15:20;5.20;99.90
21844;DHT22;11084;52.482;9.108;2022-11-12T17:18:05;5.10;99.90
21844;DHT22;11084;52.482;9.108;2022-11-12T17:20:50;5.10;99.90
21844;DHT22;11084;52.482;9.108;2022-11-12T17:23:35;5.10;99.90
21844;DHT22;11084;52.482;9.108;2022-11-12T17:26:20;5.00;99.90
21844;DHT22;11084;52.482;9.108;2022-11-12T17:29:04;5.00;99.90
21844;DHT22;11084;52.482;9.108;2022-11-12T17:31:49;4.90;99.90
21844;DHT22;11084;52.482;9.108;2022-11-12T17:34:34;4.90;99.90
21844;DHT22;11084;52.482;9.108;2022-11-12T17:37:18;4.80;99.90
21844;DHT22;11084;52.482;9.108;2022-11-12T17:40:03;4.60;99.90
21844;DHT22;11084;52.482;9.108;2022-11-12T17:42:49;4.60;99.90
21844;DHT22;11084;52.482;9.108;2022-11-12T17:45:33;4.50;99.90
21844;DHT22;11084;52.482;9.108;2022-11-12T17:48:18;4.50;99.90
21844;DHT22;11084;52.482;9.108;2022-11-12T17:51:10;4.30;99.90
21844;DHT22;11084;52.482;9.108;2022-11-12T17:53:56;4.20;99.90
21844;DHT22;11084;52.482;9.108;2022-11-12T17:56:41;4.00;99.90
21844;DHT22;11084;52.482;9.108;2022-11-12T17:59:25;4.10;99.90
21844;DHT22;11084;52.482;9.108;2022-11-12T18:02:11;3.80;99.90
21844;DHT22;11084;52.482;9.108;2022-11-12T18:04:55;3.90;99.90
21844;DHT22;11084;52.482;9.108;2022-11-12T18:07:40;3.70;99.90
21844;DHT22;11084;52.482;9.108;2022-11-12T18:10:24;3.60;99.90
21844;DHT22;11084;52.482;9.108;2022-11-12T18:13:09;3.70;99.90
21844;DHT22;11084;52.482;9.108;2022-11-12T18:15:55;3.60;99.90
21844;DHT22;11084;52.482;9.108;2022-11-12T18:18:40;3.60;99.90
21844;DHT22;11084;52.482;9.108;2022-11-12T18:21:25;3.50;99.90
21844;DHT22;11084;52.482;9.108;2022-11-12T18:24:13;3.50;99.90
21844;DHT22;11084;52.482;9.108;2022-11-12T18:26:59;3.50;99.90
21844;DHT22;11084;52.482;9.108;2022-11-12T18:29:43;3.50;99.90
21844;DHT22;11084;52.482;9.108;2022-11-12T18:32:29;3.50;99.90
21844;DHT22;11084;52.482;9.108;2022-11-12T18:35:14;3.30;99.90
21844;DHT22;11084;52.482;9.108;2022-11-12T18:37:59;3.30;99.90
21844;DHT22;11084;52.482;9.108;2022-11-12T18:43:28;3.10;99.90
21844;DHT22;11084;52.482;9.108;2022-11-12T18:48:57;3.00;99.90
21844;DHT22;11084;52.482;9.108;2022-11-12T18:51:42;3.00;99.90
21844;DHT22;11084;52.482;9.108;2022-11-12T18:54:27;2.80;99.90
21844;DHT22;11084;52.482;9.108;2022-11-12T18:57:12;2.90;99.90
21844;DHT22;11084;52.482;9.108;2022-11-12T19:02:42;2.80;99.90
21844;DHT22;11084;52.482;9.108;2022-11-12T19:05:28;2.80;99.90
21844;DHT22;11084;52.482;9.108;2022-11-12T19:08:12;2.70;99.90
21844;DHT22;11084;52.482;9.108;2022-11-12T19:11:02;2.70;99.90
21844;DHT22;11084;52.482;9.108;2022-11-12T19:13:56;2.70;99.90
21844;DHT22;11084;52.482;9.108;2022-11-12T19:16:41;2.70;99.90
21844;DHT22;11084;52.482;9.108;2022-11-12T19:19:27;2.60;99.90
21844;DHT22;11084;52.482;9.108;2022-11-12T19:22:12;2.70;99.90
21844;DHT22;11084;52.482;9.108;2022-11-12T19:24:56;2.70;99.90
21844;DHT22;11084;52.482;9.108;2022-11-12T19:27:41;2.70;99.90
21844;DHT22;11084;52.482;9.108;2022-11-12T19:30:26;2.70;99.90
21844;DHT22;11084;52.482;9.108;2022-11-12T19:33:11;2.80;99.90
21844;DHT22;11084;52.482;9.108;2022-11-12T19:35:55;2.80;99.90
21844;DHT22;11084;52.482;9.108;2022-11-12T19:38:40;2.80;99.90
21844;DHT22;11084;52.482;9.108;2022-11-12T19:41:25;2.80;99.90
21844;DHT22;11084;52.482;9.108;2022-11-12T19:46:54;2.80;99.90
21844;DHT22;11084;52.482;9.108;2022-11-12T19:49:39;2.90;99.90
21844;DHT22;11084;52.482;9.108;2022-11-12T19:52:24;2.90;99.90
21844;DHT22;11084;52.482;9.108;2022-11-12T19:55:09;2.80;99.90
21844;DHT22;11084;52.482;9.108;2022-11-12T19:57:55;2.90;99.90
21844;DHT22;11084;52.482;9.108;2022-11-12T20:00:39;2.90;99.90
21844;DHT22;11084;52.482;9.108;2022-11-12T20:03:24;2.90;99.90
21844;DHT22;11084;52.482;9.108;2022-11-12T20:06:18;3.00;99.90
21844;DHT22;11084;52.482;9.108;2022-11-12T20:11:54;3.10;99.90
21844;DHT22;11084;52.482;9.108;2022-11-12T20:14:40;3.10;99.90
21844;DHT22;11084;52.482;9.108;2022-11-12T20:17:25;3.10;99.90
21844;DHT22;11084;52.482;9.108;2022-11-12T20:20:12;3.10;99.90
21844;DHT22;11084;52.482;9.108;2022-11-12T20:22:57;3.20;99.90
21844;DHT22;11084;52.482;9.108;2022-11-12T20:25:44;3.20;99.90
21844;DHT22;11084;52.482;9.108;2022-11-12T20:28:32;3.00;99.90
21844;DHT22;11084;52.482;9.108;2022-11-12T20:31:20;3.00;99.90
21844;DHT22;11084;52.482;9.108;2022-11-12T20:34:06;3.00;99.90
21844;DHT22;11084;52.482;9.108;2022-11-12T20:36:53;3.00;99.90
21844;DHT22;11084;52.482;9.108;2022-11-12T20:39:38;4.20;99.90
21844;DHT22;11084;52.482;9.108;2022-11-12T20:42:23;3.00;99.90
21844;DHT22;11084;52.482;9.108;2022-11-12T20:47:56;3.00;99.90
21844;DHT22;11084;52.482;9.108;2022-11-12T20:50:42;3.00;99.90
21844;DHT22;11084;52.482;9.108;2022-11-12T20:53:32;4.40;99.90
21844;DHT22;11084;52.482;9.108;2022-11-12T20:56:20;3.00;99.90
21844;DHT22;11084;52.482;9.108;2022-11-12T20:59:07;3.00;99.90
21844;DHT22;11084;52.482;9.108;2022-11-12T21:01:53;3.00;99.90
21844;DHT22;11084;52.482;9.108;2022-11-12T21:04:44;3.00;99.90
21844;DHT22;11084;52.482;9.108;2022-11-12T21:07:29;3.10;99.90